createdAt,value
2023-03-26T00:02:13.356Z,97573.69
2023-03-26T00:04:42.736Z,97574.97
2023-03-26T00:07:12.704Z,97570.19
2023-03-26T00:09:41.821Z,97579.44
2023-03-26T00:12:10.895Z,97578.06
2023-03-26T00:14:40.928Z,97584.69
2023-03-26T00:17:10.055Z,97578.31
2023-03-26T00:19:40.351Z,97586.31
2023-03-26T00:22:13.615Z,97564.88
2023-03-26T00:24:45.987Z,97551.31
2023-03-26T00:27:15.181Z,97572.75
2023-03-26T00:29:44.874Z,97568.38
2023-03-26T00:32:14.581Z,97571.97
2023-03-26T00:34:46.264Z,97570.19
2023-03-26T00:37:15.511Z,97572.97
2023-03-26T00:39:44.726Z,97582.78
2023-03-26T00:42:15.007Z,97579.59
2023-03-26T00:44:44.288Z,97579.56
2023-03-26T00:47:13.533Z,97570.66
2023-03-26T00:49:43.159Z,97571.59
2023-03-26T00:52:12.507Z,97566.88
2023-03-26T00:54:41.615Z,97576.00
2023-03-26T00:57:12.319Z,97579.53
2023-03-26T00:59:42.355Z,97569.47
2023-03-26T01:02:16.950Z,97572.25
2023-03-26T01:04:57.336Z,97570.97
2023-03-26T01:07:29.192Z,97562.50
2023-03-26T01:10:00.236Z,97563.63
2023-03-26T01:12:34.382Z,97561.34
2023-03-26T01:15:04.571Z,97558.72
2023-03-26T01:17:37.998Z,97566.69
2023-03-26T01:20:15.654Z,97567.84
2023-03-26T01:22:52.324Z,97563.78
2023-03-26T01:25:25.878Z,97576.97
2023-03-26T01:27:56.170Z,97558.16
2023-03-26T01:30:25.386Z,97562.72
2023-03-26T01:33:14.218Z,97561.69
2023-03-26T01:35:52.967Z,97560.09
2023-03-26T01:38:52.947Z,97552.72
2023-03-26T01:41:44.773Z,97559.16
2023-03-26T01:44:18.135Z,97561.78
2023-03-26T01:46:48.624Z,97567.56
2023-03-26T01:49:18.668Z,97555.59
2023-03-26T01:51:48.542Z,97554.66
2023-03-26T01:54:21.521Z,97551.31
2023-03-26T01:56:59.004Z,97557.00
2023-03-26T01:59:40.629Z,97553.81
2023-03-26T02:02:28.994Z,97564.03
2023-03-26T02:05:06.092Z,97562.88
2023-03-26T02:07:43.488Z,97565.38
2023-03-26T02:10:22.945Z,97555.84
2023-03-26T02:12:52.623Z,97549.72
2023-03-26T02:15:22.315Z,97547.78
2023-03-26T02:17:53.086Z,97549.69
2023-03-26T02:20:22.450Z,97553.78
2023-03-26T02:22:51.506Z,97555.44
2023-03-26T02:25:22.527Z,97556.72
2023-03-26T02:27:53.657Z,97558.75
2023-03-26T02:30:25.867Z,97558.41
2023-03-26T02:32:59.447Z,97568.84
2023-03-26T02:35:34.495Z,97562.47
2023-03-26T02:38:04.808Z,97555.69
2023-03-26T02:40:33.952Z,97558.13
2023-03-26T02:43:03.094Z,97553.34
2023-03-26T02:45:34.302Z,97551.53
2023-03-26T02:48:23.946Z,97541.34
2023-03-26T02:50:55.686Z,97546.56
2023-03-26T02:54:01.208Z,97548.78
2023-03-26T02:56:30.690Z,97538.56
2023-03-26T02:59:18.338Z,97538.59
2023-03-26T03:01:51.458Z,97535.41
2023-03-26T03:04:21.984Z,97542.38
2023-03-26T03:06:57.625Z,97530.38
2023-03-26T03:09:27.718Z,97529.22
2023-03-26T03:12:17.159Z,97541.19
2023-03-26T03:14:46.418Z,97544.38
2023-03-26T03:17:15.498Z,97529.56
2023-03-26T03:19:45.338Z,97524.16
2023-03-26T03:22:14.584Z,97521.75
2023-03-26T03:24:44.352Z,97529.53
2023-03-26T03:27:13.858Z,97535.50
2023-03-26T03:29:47.722Z,97544.09
2023-03-26T03:32:37.187Z,97544.88
2023-03-26T03:35:07.593Z,97555.19
2023-03-26T03:37:36.868Z,97552.03
2023-03-26T03:40:07.796Z,97553.81
2023-03-26T03:42:38.142Z,97561.19
2023-03-26T03:45:09.179Z,97555.34
2023-03-26T03:48:00.077Z,97563.47
2023-03-26T03:50:37.180Z,97561.06
2023-03-26T03:53:37.237Z,97569.44
2023-03-26T03:56:10.289Z,97571.78
2023-03-26T03:58:59.718Z,97582.16
2023-03-26T04:01:36.021Z,97574.19
2023-03-26T04:04:15.532Z,97567.38
2023-03-26T04:06:53.190Z,97569.38
2023-03-26T04:09:22.971Z,97569.75
2023-03-26T04:11:52.611Z,97571.56
2023-03-26T04:14:54.488Z,97565.78
2023-03-26T04:17:24.233Z,97569.81
2023-03-26T04:19:57.113Z,97570.25
2023-03-26T04:22:34.788Z,97553.09
2023-03-26T04:25:07.682Z,97558.09
2023-03-26T04:27:47.880Z,97555.50
2023-03-26T04:30:42.443Z,97545.66
2023-03-26T04:33:39.319Z,97555.50
2023-03-26T04:36:10.235Z,97561.84
2023-03-26T04:38:49.044Z,97561.66
2023-03-26T04:41:20.463Z,97550.84
2023-03-26T04:43:56.891Z,97562.63
2023-03-26T04:46:53.042Z,97557.00
2023-03-26T04:49:29.105Z,97561.41
2023-03-26T04:51:58.428Z,97565.78
2023-03-26T04:54:46.693Z,97562.59
2023-03-26T04:57:27.634Z,97566.03
2023-03-26T05:00:19.416Z,97573.41
2023-03-26T05:02:59.615Z,97562.03
2023-03-26T05:05:29.404Z,97572.59
2023-03-26T05:08:01.131Z,97570.81
2023-03-26T05:10:30.387Z,97571.88
2023-03-26T05:13:14.248Z,97562.72
2023-03-26T05:15:49.562Z,97572.72
2023-03-26T05:18:39.425Z,97565.97
2023-03-26T05:21:09.212Z,97558.56
2023-03-26T05:23:40.352Z,97562.00
2023-03-26T05:26:23.398Z,97563.22
2023-03-26T05:28:52.845Z,97557.25
2023-03-26T05:31:31.343Z,97566.88
2023-03-26T05:34:01.802Z,97563.50
2023-03-26T05:36:30.980Z,97561.75
2023-03-26T05:39:29.907Z,97550.56
2023-03-26T05:42:31.760Z,97552.19
2023-03-26T05:45:30.317Z,97554.00
2023-03-26T05:48:03.830Z,97554.19
2023-03-26T05:50:33.049Z,97555.13
2023-03-26T05:53:03.001Z,97549.44
2023-03-26T05:56:02.110Z,97551.16
2023-03-26T05:58:52.190Z,97551.22
2023-03-26T06:01:45.011Z,97553.09
2023-03-26T06:04:28.678Z,97556.88
2023-03-26T06:07:21.106Z,97553.97
2023-03-26T06:11:33.221Z,97547.69
2023-03-26T06:14:04.753Z,97549.44
2023-03-26T06:16:35.477Z,97553.25
2023-03-26T06:19:24.123Z,97556.09
2023-03-26T06:22:22.406Z,97545.94
2023-03-26T06:25:19.303Z,97552.69
2023-03-26T06:28:18.099Z,97547.25
2023-03-26T06:31:22.787Z,97553.59
2023-03-26T06:33:57.094Z,97555.53
2023-03-26T06:36:26.382Z,97550.66
2023-03-26T06:38:55.629Z,97549.59
2023-03-26T06:41:24.863Z,97553.25
2023-03-26T06:44:12.504Z,97542.25
2023-03-26T06:47:00.237Z,97536.22
2023-03-26T06:49:52.277Z,97545.00
2023-03-26T06:52:56.944Z,97531.81
2023-03-26T06:55:55.373Z,97534.00
2023-03-26T06:58:45.866Z,97543.75
2023-03-26T07:01:33.574Z,97533.16
2023-03-26T07:04:21.352Z,97540.91
2023-03-26T07:07:09.291Z,97546.50
2023-03-26T07:09:56.741Z,97545.50
2023-03-26T07:12:47.669Z,97555.91
2023-03-26T07:15:35.872Z,97553.63
2023-03-26T07:18:15.201Z,97549.63
2023-03-26T07:20:46.486Z,97552.03
2023-03-26T07:23:20.156Z,97546.66
2023-03-26T07:26:26.332Z,97551.78
2023-03-26T07:29:34.983Z,97555.44
2023-03-26T07:32:18.468Z,97554.66
2023-03-26T07:35:26.383Z,97557.59
2023-03-26T07:38:25.792Z,97555.66
2023-03-26T07:41:40.074Z,97546.66
2023-03-26T07:44:46.233Z,97554.16
2023-03-26T07:47:53.636Z,97554.25
2023-03-26T07:50:29.487Z,97551.47
2023-03-26T07:53:22.148Z,97553.13
2023-03-26T07:56:16.326Z,97558.53
2023-03-26T07:59:21.461Z,97555.38
2023-03-26T08:02:19.607Z,97547.72
2023-03-26T08:05:18.963Z,97546.94
2023-03-26T08:08:23.085Z,97547.13
2023-03-26T08:11:40.619Z,97546.56
2023-03-26T08:14:31.054Z,97550.84
2023-03-26T08:17:06.927Z,97549.19
2023-03-26T08:19:51.242Z,97548.94
2023-03-26T08:22:28.871Z,97543.59
2023-03-26T08:25:25.650Z,97538.50
2023-03-26T08:28:08.609Z,97541.69
2023-03-26T08:30:37.868Z,97547.50
2023-03-26T08:33:20.598Z,97533.31
2023-03-26T08:35:50.120Z,97535.22
2023-03-26T08:38:20.990Z,97535.31
2023-03-26T08:41:08.286Z,97533.28
2023-03-26T08:43:46.187Z,97533.47
2023-03-26T08:46:21.137Z,97533.59
2023-03-26T08:49:05.754Z,97519.13
2023-03-26T08:51:49.931Z,97520.22
2023-03-26T08:54:48.430Z,97524.88
2023-03-26T08:57:24.868Z,97525.13
2023-03-26T09:00:12.492Z,97524.75
2023-03-26T09:03:00.560Z,97526.03
2023-03-26T09:05:43.049Z,97518.25
2023-03-26T09:08:35.672Z,97526.25
2023-03-26T09:11:42.095Z,97524.75
2023-03-26T09:14:55.789Z,97528.34
2023-03-26T09:17:43.436Z,97522.53
2023-03-26T09:20:37.709Z,97515.06
2023-03-26T09:23:45.452Z,97521.59
2023-03-26T09:26:38.756Z,97527.25
2023-03-26T09:29:23.050Z,97522.34
2023-03-26T09:32:26.137Z,97527.25
2023-03-26T09:35:13.803Z,97527.34
2023-03-26T09:37:59.498Z,97516.66
2023-03-26T09:40:52.442Z,97520.06
2023-03-26T09:43:28.286Z,97513.09
2023-03-26T09:46:19.135Z,97518.31
2023-03-26T09:49:24.971Z,97515.59
2023-03-26T09:52:35.621Z,97503.81
2023-03-26T09:55:08.436Z,97497.28
2023-03-26T09:58:19.187Z,97496.28
2023-03-26T10:01:06.912Z,97486.91
2023-03-26T10:04:14.819Z,97475.56
2023-03-26T10:07:02.335Z,97483.59
2023-03-26T10:09:37.542Z,97482.66
2023-03-26T10:12:15.796Z,97480.28
2023-03-26T10:14:59.260Z,97476.25
2023-03-26T10:17:43.165Z,97470.31
2023-03-26T10:20:31.381Z,97470.66
2023-03-26T10:23:03.159Z,97466.56
2023-03-26T10:26:01.459Z,97468.38
2023-03-26T10:28:36.709Z,97459.47
2023-03-26T10:31:35.362Z,97453.28
2023-03-26T10:34:28.486Z,97456.41
2023-03-26T10:37:49.917Z,97448.59
2023-03-26T10:40:57.449Z,97433.97
2023-03-26T10:44:07.258Z,97430.94
2023-03-26T10:47:18.274Z,97433.28
2023-03-26T10:50:06.204Z,97423.91
2023-03-26T10:52:41.655Z,97414.53
2023-03-26T10:55:16.658Z,97415.41
2023-03-26T10:57:56.167Z,97416.53
2023-03-26T11:00:29.049Z,97413.94
2023-03-26T11:03:19.945Z,97400.78
2023-03-26T11:06:02.862Z,97405.31
2023-03-26T11:08:41.230Z,97401.06
2023-03-26T11:11:39.288Z,97405.75
2023-03-26T11:14:35.255Z,97406.84
2023-03-26T11:17:40.008Z,97401.50
2023-03-26T11:20:39.811Z,97391.47
2023-03-26T11:23:14.677Z,97389.38
2023-03-26T11:26:22.788Z,97375.16
2023-03-26T11:29:31.468Z,97378.63
2023-03-26T11:32:31.953Z,97352.56
2023-03-26T11:35:08.259Z,97364.19
2023-03-26T11:37:52.104Z,97352.31
2023-03-26T11:40:25.582Z,97351.47
2023-03-26T11:43:00.823Z,97347.53
2023-03-26T11:45:33.258Z,97348.84
2023-03-26T11:48:10.694Z,97340.19
2023-03-26T11:50:47.188Z,97342.03
2023-03-26T11:53:19.288Z,97339.41
2023-03-26T11:55:57.698Z,97338.06
2023-03-26T11:58:55.807Z,97332.78
2023-03-26T12:01:31.106Z,97326.69
2023-03-26T12:04:13.602Z,97308.44
2023-03-26T12:06:57.681Z,97318.69
2023-03-26T12:09:27.027Z,97301.75
2023-03-26T12:12:02.482Z,97298.31
2023-03-26T12:14:35.394Z,97309.22
2023-03-26T12:17:11.726Z,97316.63
2023-03-26T12:19:45.839Z,97305.50
2023-03-26T12:22:37.316Z,97301.75
2023-03-26T12:25:26.622Z,97299.19
2023-03-26T12:28:02.610Z,97286.84
2023-03-26T12:30:34.675Z,97289.25
2023-03-26T12:33:28.882Z,97289.00
2023-03-26T12:35:58.420Z,97274.53
2023-03-26T12:38:33.802Z,97276.09
2023-03-26T12:44:44.625Z,97271.38
2023-03-26T12:44:57.645Z,97274.53
2023-03-26T12:47:58.983Z,97267.41
2023-03-26T12:50:34.487Z,97258.69
2023-03-26T12:53:24.478Z,97251.94
2023-03-26T12:56:06.144Z,97252.69
2023-03-26T12:58:51.140Z,97235.78
2023-03-26T13:01:26.507Z,97241.81
2023-03-26T13:04:13.471Z,97237.19
2023-03-26T13:07:00.983Z,97243.00
2023-03-26T13:09:59.878Z,97228.31
2023-03-26T13:12:48.870Z,97213.91
2023-03-26T13:15:31.333Z,97212.78
2023-03-26T13:18:21.501Z,97216.22
2023-03-26T13:21:18.777Z,97196.84
2023-03-26T13:24:04.590Z,97186.06
2023-03-26T13:26:43.237Z,97176.31
2023-03-26T13:29:12.330Z,97172.09
2023-03-26T13:31:58.398Z,97176.72
2023-03-26T13:34:42.287Z,97174.31
2023-03-26T13:37:12.805Z,97171.34
2023-03-26T13:39:50.001Z,97173.97
2023-03-26T13:42:28.878Z,97175.63
2023-03-26T13:45:04.971Z,97173.66
2023-03-26T13:47:39.557Z,97155.72
2023-03-26T13:50:37.583Z,97141.06
2023-03-26T13:53:25.373Z,97121.47
2023-03-26T13:55:59.868Z,97124.06
2023-03-26T13:58:50.789Z,97124.09
2023-03-26T14:01:25.095Z,97100.22
2023-03-26T14:04:00.247Z,97108.03
2023-03-26T14:06:42.401Z,97127.78
2023-03-26T14:09:17.881Z,97133.97
2023-03-26T14:11:56.819Z,97141.53
2023-03-26T14:14:29.026Z,97140.69
2023-03-26T14:17:23.700Z,97138.69
2023-03-26T14:19:52.751Z,97142.72
2023-03-26T14:22:33.718Z,97137.63
2023-03-26T14:25:17.043Z,97138.09
2023-03-26T14:28:07.799Z,97151.19
2023-03-26T14:30:56.448Z,97149.03
2023-03-26T14:33:47.770Z,97153.13
2023-03-26T14:36:32.036Z,97140.78
2023-03-26T14:39:15.013Z,97150.09
2023-03-26T14:41:51.638Z,97148.91
2023-03-26T14:44:48.543Z,97151.44
2023-03-26T14:47:23.793Z,97140.75
2023-03-26T14:50:05.229Z,97134.66
2023-03-26T14:52:50.961Z,97125.41
2023-03-26T14:55:42.129Z,97103.69
2023-03-26T14:58:22.174Z,97110.31
2023-03-26T15:01:22.439Z,97112.47
2023-03-26T15:04:19.015Z,97107.22
2023-03-26T15:07:02.980Z,97103.59
2023-03-26T15:09:32.305Z,97094.66
2023-03-26T15:12:14.495Z,97096.00
2023-03-26T15:15:21.090Z,97086.31
2023-03-26T15:18:32.080Z,97084.00
2023-03-26T15:21:37.992Z,97086.94
2023-03-26T15:24:41.477Z,97074.31
2023-03-26T15:27:16.267Z,97068.78
2023-03-26T15:30:13.134Z,97059.81
2023-03-26T15:33:00.765Z,97053.00
2023-03-26T15:35:42.177Z,97048.50
2023-03-26T15:38:48.666Z,97046.94
2023-03-26T15:41:28.562Z,97048.00
2023-03-26T15:44:24.672Z,97039.53
2023-03-26T15:46:56.787Z,97038.19
2023-03-26T15:49:44.249Z,97036.38
2023-03-26T15:52:19.311Z,97034.28
2023-03-26T15:55:05.476Z,97029.50
2023-03-26T15:57:51.112Z,97020.28
2023-03-26T16:00:29.235Z,97020.53
2023-03-26T16:02:58.367Z,97020.00
2023-03-26T16:05:36.842Z,97017.63
2023-03-26T16:08:40.093Z,97012.09
2023-03-26T16:11:12.736Z,97014.44
2023-03-26T16:13:49.388Z,97015.53
2023-03-26T16:16:24.975Z,97020.50
2023-03-26T16:18:55.252Z,97018.41
2023-03-26T16:21:32.361Z,97013.94
2023-03-26T16:24:08.234Z,97013.91
2023-03-26T16:26:43.242Z,97010.22
2023-03-26T16:29:22.342Z,97011.28
2023-03-26T16:31:57.670Z,97018.63
2023-03-26T16:34:36.935Z,97014.94
2023-03-26T16:37:32.301Z,97013.59
2023-03-26T16:40:20.241Z,97010.69
2023-03-26T16:42:59.271Z,97009.84
2023-03-26T16:45:57.360Z,97002.44
2023-03-26T16:48:32.414Z,97003.22
2023-03-26T16:51:17.209Z,97009.47
2023-03-26T16:54:00.656Z,97005.50
2023-03-26T16:56:33.494Z,96993.34
2023-03-26T16:59:37.368Z,96993.81
2023-03-26T17:02:25.433Z,96993.75
2023-03-26T17:05:09.589Z,96996.28
2023-03-26T17:07:47.196Z,96985.72
2023-03-26T17:10:33.229Z,96990.94
2023-03-26T17:13:16.791Z,96983.53
2023-03-26T17:15:50.586Z,96973.50
2023-03-26T17:18:44.576Z,96972.63
2023-03-26T17:21:46.359Z,96968.41
2023-03-26T17:24:41.140Z,96969.00
2023-03-26T17:27:57.443Z,96969.94
2023-03-26T17:30:32.713Z,96976.97
2023-03-26T17:33:01.961Z,96976.94
2023-03-26T17:35:42.831Z,96973.22
2023-03-26T17:38:17.774Z,96981.78
2023-03-26T17:40:49.616Z,96983.78
2023-03-26T17:43:36.953Z,96986.66
2023-03-26T17:46:42.235Z,96978.28
2023-03-26T17:49:24.238Z,96983.75
2023-03-26T17:52:15.160Z,96987.97
2023-03-26T17:54:47.271Z,96973.78
2023-03-26T17:57:32.668Z,96975.94
2023-03-26T18:00:06.016Z,96978.06
2023-03-26T18:02:47.224Z,96984.38
2023-03-26T18:05:17.495Z,96978.88
2023-03-26T18:07:56.264Z,96981.72
2023-03-26T18:10:49.705Z,96990.63
2023-03-26T18:13:56.988Z,96986.19
2023-03-26T18:16:35.441Z,96983.25
2023-03-26T18:19:18.246Z,96984.22
2023-03-26T18:21:50.474Z,96966.66
2023-03-26T18:24:41.249Z,96968.41
2023-03-26T18:27:14.849Z,96961.47
2023-03-26T18:29:57.519Z,96964.50
2023-03-26T18:32:34.031Z,96957.63
2023-03-26T18:35:21.415Z,96953.06
2023-03-26T18:37:54.358Z,96952.22
2023-03-26T18:40:25.007Z,96942.47
2023-03-26T18:42:57.836Z,96943.75
2023-03-26T18:45:36.325Z,96941.56
2023-03-26T18:48:19.155Z,96940.44
2023-03-26T18:50:54.944Z,96934.13
2023-03-26T18:53:29.740Z,96928.13
2023-03-26T18:55:59.016Z,96928.91
2023-03-26T18:58:36.899Z,96928.91
2023-03-26T19:01:16.879Z,96932.69
2023-03-26T19:03:49.896Z,96924.84
2023-03-26T19:06:20.979Z,96920.66
2023-03-26T19:08:51.054Z,96924.59
2023-03-26T19:11:20.628Z,96919.34
2023-03-26T19:14:08.137Z,96924.59
2023-03-26T19:16:43.519Z,96931.13
2023-03-26T19:19:18.958Z,96926.34
2023-03-26T19:21:48.930Z,96929.16
2023-03-26T19:24:20.703Z,96915.75
2023-03-26T19:26:50.898Z,96923.31
2023-03-26T19:29:28.222Z,96912.28
2023-03-26T19:32:14.232Z,96911.78
2023-03-26T19:34:45.214Z,96906.56
2023-03-26T19:37:22.199Z,96905.00
2023-03-26T19:40:02.200Z,96916.31
2023-03-26T19:42:43.853Z,96903.94
2023-03-26T19:45:23.601Z,96901.59
2023-03-26T19:48:03.458Z,96897.84
2023-03-26T19:50:42.211Z,96901.81
2023-03-26T19:53:17.144Z,96902.84
2023-03-26T19:55:55.779Z,96903.41
2023-03-26T19:58:28.415Z,96893.47
2023-03-26T20:00:58.315Z,96890.88
2023-03-26T20:03:39.005Z,96877.00
2023-03-26T20:06:17.404Z,96878.84
2023-03-26T20:08:47.268Z,96870.44
2023-03-26T20:11:20.647Z,96858.41
2023-03-26T20:13:50.445Z,96852.69
2023-03-26T20:16:31.973Z,96851.66
2023-03-26T20:19:04.509Z,96840.16
2023-03-26T20:21:34.879Z,96838.09
2023-03-26T20:24:31.074Z,96830.56
2023-03-26T20:27:00.165Z,96826.38
2023-03-26T20:29:29.400Z,96833.97
2023-03-26T20:31:58.486Z,96833.91
2023-03-26T20:34:28.045Z,96824.97
2023-03-26T20:37:01.251Z,96821.66
2023-03-26T20:39:30.951Z,96814.91
2023-03-26T20:42:00.093Z,96823.38
2023-03-26T20:44:29.282Z,96827.75
2023-03-26T20:46:59.077Z,96831.81
2023-03-26T20:49:29.356Z,96840.69
2023-03-26T20:51:59.691Z,96848.03
2023-03-26T20:54:30.350Z,96843.72
2023-03-26T20:56:59.522Z,96843.81
2023-03-26T20:59:30.017Z,96837.47
2023-03-26T21:01:59.428Z,96835.91
2023-03-26T21:04:28.760Z,96846.09
2023-03-26T21:07:07.224Z,96837.63
2023-03-26T21:09:44.994Z,96841.31
2023-03-26T21:12:28.160Z,96833.50
2023-03-26T21:14:57.607Z,96830.88
2023-03-26T21:17:27.283Z,96832.69
2023-03-26T21:20:00.520Z,96828.16
2023-03-26T21:22:56.412Z,96818.34
2023-03-26T21:26:06.478Z,96808.13
2023-03-26T21:28:42.493Z,96806.31
2023-03-26T21:31:14.872Z,96805.88
2023-03-26T21:33:45.020Z,96806.16
2023-03-26T21:36:15.036Z,96796.69
2023-03-26T21:38:45.583Z,96791.13
2023-03-26T21:41:23.515Z,96784.34
2023-03-26T21:43:52.633Z,96780.63
2023-03-26T21:46:22.102Z,96772.56
2023-03-26T21:48:51.732Z,96774.44
2023-03-26T21:51:21.230Z,96764.91
2023-03-26T21:53:50.695Z,96771.94
2023-03-26T21:56:48.665Z,96772.97
2023-03-26T21:59:32.102Z,96754.16
2023-03-26T22:02:10.478Z,96751.47
2023-03-26T22:05:02.575Z,96751.91
2023-03-26T22:07:50.939Z,96741.72
2023-03-26T22:10:20.547Z,96729.16
2023-03-26T22:12:49.986Z,96736.44
2023-03-26T22:15:20.035Z,96736.19
2023-03-26T22:17:54.143Z,96742.66
2023-03-26T22:20:28.161Z,96740.13
2023-03-26T22:22:57.433Z,96733.09
2023-03-26T22:25:26.607Z,96730.25
2023-03-26T22:27:57.496Z,96732.31
2023-03-26T22:30:27.316Z,96724.97
2023-03-26T22:32:56.927Z,96715.56
2023-03-26T22:35:26.731Z,96711.94
2023-03-26T22:38:00.757Z,96709.84
2023-03-26T22:40:30.548Z,96710.75
2023-03-26T22:42:59.579Z,96704.19
2023-03-26T22:45:28.700Z,96704.41
2023-03-26T22:48:03.690Z,96699.91
2023-03-26T22:50:33.595Z,96701.97
2023-03-26T22:53:02.779Z,96688.69
2023-03-26T22:55:32.410Z,96694.94
2023-03-26T22:58:01.580Z,96691.53
2023-03-26T23:00:32.371Z,96690.50
2023-03-26T23:03:01.896Z,96694.69
2023-03-26T23:05:31.012Z,96688.69
2023-03-26T23:08:00.418Z,96694.22
2023-03-26T23:10:30.217Z,96691.38
2023-03-26T23:12:59.540Z,96684.25
2023-03-26T23:15:28.734Z,96692.66
2023-03-26T23:17:59.151Z,96693.09
2023-03-26T23:20:30.100Z,96706.84
2023-03-26T23:22:59.201Z,96698.78
2023-03-26T23:25:28.543Z,96693.28
2023-03-26T23:27:57.795Z,96686.25
2023-03-26T23:30:26.843Z,96684.16
2023-03-26T23:32:57.362Z,96679.44
2023-03-26T23:35:26.612Z,96675.25
2023-03-26T23:37:56.005Z,96670.19
2023-03-26T23:40:25.205Z,96676.19
2023-03-26T23:42:54.288Z,96672.47
2023-03-26T23:45:23.462Z,96676.88
2023-03-26T23:47:52.591Z,96665.09
2023-03-26T23:50:23.543Z,96668.03
2023-03-26T23:52:53.658Z,96665.66
2023-03-26T23:55:22.796Z,96662.50
2023-03-26T23:57:52.029Z,96658.88
